Time;durP1;ratioP1;P1;durP2;ratioP2;P2;SDS_P1;SDS_P2;PMS_P1;PMS_P2;Temp;Humidity;BMP_temperature;BMP_pressure;BME280_temperature;BME280_humidity;BME280_pressure;Samples;Min_cycle;Max_cycle;Signal;HPM_P1;HPM_P2
2021/01/10 00:01:22;;;;;;;;;;;19.60;78.90;;;19.71;58.61;98039.13;5017397;28;20011;-84
2021/01/10 00:03:48;;;;;;;;;;;19.70;78.60;;;19.87;58.79;98057.59;5000892;28;20044;-83
2021/01/10 00:06:14;;;;;;;;;;;19.60;79.20;;;19.76;58.36;98052.91;5000448;28;20487;-82
2021/01/10 00:08:40;;;;;;;;;;;19.60;78.40;;;19.79;58.23;98053.28;5016489;28;20015;-82
2021/01/10 00:11:06;;;;;;;;;;;19.60;78.40;;;19.75;58.67;98056.72;5016628;28;19921;-82
2021/01/10 00:13:32;;;;;;;;;;;19.60;78.20;;;19.83;58.69;98073.63;5017229;28;20011;-83
2021/01/10 00:15:58;;;;;;;;;;;19.60;78.10;;;19.83;58.51;98067.34;5000707;28;20007;-83
2021/01/10 00:18:24;;;;;;;;;;;19.60;78.20;;;19.83;58.28;98062.72;5017293;28;19928;-83
2021/01/10 00:20:51;;;;;;;;;;;19.60;77.90;;;19.75;58.28;98051.25;5016912;28;19925;-83
2021/01/10 00:23:17;;;;;;;;;;;19.60;78.20;;;19.88;58.22;98064.75;5017220;28;19917;-85
2021/01/10 00:25:42;;;;;;;;;;;19.60;78.10;;;19.80;58.28;98052.22;5000774;28;20371;-86
2021/01/10 00:28:08;;;;;;;;;;;19.60;78.00;;;19.71;58.21;98041.84;5017123;28;20007;-85
2021/01/10 00:30:34;;;;;;;;;;;19.50;77.90;;;19.73;58.63;98056.13;5000473;28;19955;-84
2021/01/10 00:33:00;;;;;;;;;;;19.60;77.90;;;19.74;58.29;98052.34;5017040;28;19917;-84
2021/01/10 00:35:26;;;;;;;;;;;19.60;77.80;;;19.71;58.25;98050.06;5016856;28;19917;-84
2021/01/10 00:37:56;;;;;;;;;;;19.60;77.70;;;19.83;57.85;98078.25;5016923;28;20251;-83
2021/01/10 00:40:24;;;;;;;;;;;19.60;77.50;;;19.65;58.44;98043.63;5016707;28;19925;-84
2021/01/10 00:42:50;;;;;;;;;;;19.60;77.40;;;19.73;58.05;98065.16;5017150;28;19917;-83
2021/01/10 00:45:18;;;;;;;;;;;19.60;77.30;;;19.76;58.22;98051.03;5016642;28;19950;-82
2021/01/10 00:47:44;;;;;;;;;;;19.60;77.70;;;19.68;57.96;98050.53;5017182;28;20419;-84
2021/01/10 00:50:11;;;;;;;;;;;19.60;77.30;;;19.78;57.92;98065.31;5016855;28;19956;-83
2021/01/10 00:52:37;;;;;;;;;;;19.60;77.30;;;19.74;58.31;98060.53;5016844;28;19932;-86
2021/01/10 00:55:07;;;;;;;;;;;19.60;77.80;;;19.80;58.23;98085.00;5017076;28;19921;-85
2021/01/10 00:57:33;;;;;;;;;;;19.50;77.40;;;19.87;57.68;98077.56;5017212;28;20012;-88
2021/01/10 00:59:58;;;;;;;;;;;19.50;77.20;;;19.84;57.84;98074.47;5017090;28;19924;-87
2021/01/10 01:02:24;;;;;;;;;;;19.50;76.80;;;19.57;57.61;98030.28;5033235;28;20159;-87
2021/01/10 01:04:50;;;;;;;;;;;19.50;76.80;;;19.77;57.49;98074.56;5016707;28;20012;-87
2021/01/10 01:07:16;;;;;;;;;;;19.50;76.80;;;19.83;57.41;98072.81;5000477;28;19917;-87
2021/01/10 01:09:42;;;;;;;;;;;19.50;76.80;;;19.77;57.44;98071.81;5016616;28;19925;-84
2021/01/10 01:12:08;;;;;;;;;;;19.50;76.80;;;19.77;57.62;98073.72;5016931;28;19924;-86
2021/01/10 01:14:34;;;;;;;;;;;19.50;76.70;;;19.74;57.39;98074.19;5016451;28;20428;-85
2021/01/10 01:17:00;;;;;;;;;;;19.50;76.40;;;19.61;57.61;98060.69;5016692;28;20311;-84
2021/01/10 01:19:26;;;;;;;;;;;19.50;76.50;;;19.39;58.04;98025.66;5036717;28;20047;-85
2021/01/10 01:21:52;;;;;;;;;;;19.50;76.50;;;19.75;57.92;98082.13;5020244;28;20008;-85
2021/01/10 01:24:21;;;;;;;;;;;19.50;76.80;;;19.68;58.17;98075.09;5003999;28;19917;-85
2021/01/10 01:26:47;;;;;;;;;;;19.60;76.40;;;19.65;58.30;98070.09;5020999;28;19917;-85
2021/01/10 01:29:14;;;;;;;;;;;19.60;76.10;;;19.57;58.11;98052.16;5020894;28;19925;-84
2021/01/10 01:31:40;;;;;;;;;;;19.60;76.80;;;19.64;58.32;98065.69;5019273;28;20287;-83
2021/01/10 01:34:06;;;;;;;;;;;19.50;77.00;;;19.58;58.04;98070.19;5020144;28;20000;-84
2021/01/10 01:36:32;;;;;;;;;;;19.50;76.90;;;19.68;58.18;98073.22;5019977;28;19927;-85
2021/01/10 01:39:01;;;;;;;;;;;19.50;77.20;;;19.57;58.35;98065.78;5003477;28;19917;-83
2021/01/10 01:41:27;;;;;;;;;;;19.50;77.70;;;19.72;58.24;98084.50;5020256;28;20283;-84
2021/01/10 01:43:54;;;;;;;;;;;19.50;77.40;;;19.65;58.37;98060.00;5003860;28;19917;-85
2021/01/10 01:46:28;;;;;;;;;;;19.50;77.60;;;19.60;58.31;98051.66;5019778;28;19917;-83
2021/01/10 01:48:57;;;;;;;;;;;19.50;78.40;;;19.76;58.14;98080.25;5036384;28;19941;-88
2021/01/10 01:51:24;;;;;;;;;;;19.50;78.10;;;19.68;58.41;98069.66;5020258;28;20383;-89
2021/01/10 01:53:50;;;;;;;;;;;19.50;78.00;;;19.66;58.79;98071.75;5019953;28;19917;-87
2021/01/10 01:56:16;;;;;;;;;;;19.50;78.30;;;19.76;58.17;98074.78;5019663;28;20327;-85
2021/01/10 01:59:08;;;;;;;;;;;19.50;77.50;;;19.75;58.19;98086.75;5019837;28;20400;-85
2021/01/10 02:01:37;;;;;;;;;;;19.50;77.20;;;19.71;58.49;98086.41;5036356;28;19913;-88
2021/01/10 02:04:19;;;;;;;;;;;19.50;77.50;;;19.69;58.63;98080.31;5019984;28;19918;-88
2021/01/10 02:07:19;;;;;;;;;;;19.50;77.80;;;19.56;58.41;98060.56;5020749;28;19917;-86
2021/01/10 02:10:11;;;;;;;;;;;19.50;77.40;;;19.66;58.71;98082.69;5007509;28;20020;-88
2021/01/10 02:12:49;;;;;;;;;;;19.50;77.80;;;19.65;58.71;98075.56;5027088;28;19940;-86
2021/01/10 02:15:19;;;;;;;;;;;19.40;77.90;;;19.56;58.65;98066.03;5021620;28;20276;-89
2021/01/10 02:17:48;;;;;;;;;;;19.40;77.80;;;19.61;58.25;98066.16;5020187;28;20307;-87
2021/01/10 02:20:27;;;;;;;;;;;19.40;77.60;;;19.63;58.64;98075.81;5019583;28;20011;-85
2021/01/10 02:23:20;;;;;;;;;;;19.40;78.70;;;19.67;58.40;98093.41;5020357;28;19924;-85
2021/01/10 02:25:48;;;;;;;;;;;19.40;77.90;;;19.64;58.20;98087.53;5019862;28;19917;-85
2021/01/10 02:28:22;;;;;;;;;;;19.40;77.50;;;19.74;58.56;98085.13;5019706;28;19928;-86
2021/01/10 02:30:49;;;;;;;;;;;19.40;77.90;;;19.58;58.14;98074.81;5019795;28;19921;-86
2021/01/10 02:33:46;;;;;;;;;;;19.40;77.50;;;19.60;58.37;98072.69;5019201;28;19918;-88
2021/01/10 02:36:29;;;;;;;;;;;19.40;78.20;;;19.73;58.07;98078.81;5038580;28;19944;-86
2021/01/10 02:39:18;;;;;;;;;;;19.40;78.00;;;19.39;57.70;98025.66;5004370;28;19960;-87
2021/01/10 02:41:49;;;;;;;;;;;19.50;77.20;;;19.68;57.99;98058.72;5022863;28;19964;-88
2021/01/10 02:44:27;;;;;;;;;;;19.50;76.90;;;19.78;57.94;98086.31;5019858;28;19917;-89
2021/01/10 02:46:54;;;;;;;;;;;19.50;76.60;;;19.67;57.42;98059.78;5034775;28;19917;-89
2021/01/10 02:49:20;;;;;;;;;;;19.60;76.60;;;19.67;57.65;98067.97;5018839;28;20296;-90
2021/01/10 02:51:49;;;;;;;;;;;19.50;76.50;;;19.65;57.81;98072.81;5018426;28;19925;-90
2021/01/10 02:54:17;;;;;;;;;;;19.50;76.30;;;19.57;58.18;98067.69;5020245;28;19917;-91
2021/01/10 02:57:01;;;;;;;;;;;19.40;76.30;;;19.60;57.95;98075.41;5035542;28;19917;-90
2021/01/10 02:59:31;;;;;;;;;;;19.40;76.40;;;19.67;57.68;98074.28;5019997;28;19917;-89
2021/01/10 03:02:02;;;;;;;;;;;19.40;76.30;;;19.50;58.30;98062.31;5002872;28;19963;-88
2021/01/10 03:04:29;;;;;;;;;;;19.40;76.20;;;19.44;57.87;98052.25;5019272;28;19917;-88
2021/01/10 03:06:56;;;;;;;;;;;19.40;76.40;;;19.46;58.17;98051.03;5018815;28;19917;-89
2021/01/10 03:09:22;;;;;;;;;;;19.40;76.70;;;19.47;58.12;98051.84;5018364;28;19917;-90
2021/01/10 03:11:49;;;;;;;;;;;19.40;76.70;;;19.45;58.05;98046.63;5018205;28;19917;-89
2021/01/10 03:14:15;;;;;;;;;;;19.40;76.10;;;19.52;58.23;98062.94;5018574;28;19936;-88
2021/01/10 03:16:42;;;;;;;;;;;19.40;76.00;;;19.37;57.72;98021.50;5034667;28;19919;-89
2021/01/10 03:19:08;;;;;;;;;;;19.40;76.30;;;19.62;57.98;98070.56;5018475;28;19917;-88
2021/01/10 03:21:34;;;;;;;;;;;19.40;75.90;;;19.47;58.01;98052.69;5018035;28;19924;-86
2021/01/10 03:24:00;;;;;;;;;;;19.40;76.70;;;19.47;58.04;98049.97;5018296;28;19923;-89
2021/01/10 03:26:27;;;;;;;;;;;19.30;77.20;;;19.41;58.39;98052.75;5018167;28;20015;-89
2021/01/10 03:28:53;;;;;;;;;;;19.30;77.40;;;19.42;58.37;98052.53;5018191;28;20431;-90
2021/01/10 03:31:19;;;;;;;;;;;19.30;77.70;;;19.34;58.07;98038.31;5001452;28;20026;-89
2021/01/10 03:33:47;;;;;;;;;;;19.30;77.20;;;19.45;58.23;98052.06;5001776;28;20372;-88
2021/01/10 03:36:14;;;;;;;;;;;19.30;77.00;;;19.44;58.39;98047.66;5017916;28;19921;-88
2021/01/10 03:38:41;;;;;;;;;;;19.30;77.30;;;19.45;57.80;98043.88;5017564;28;19975;-87
2021/01/10 03:41:08;;;;;;;;;;;19.30;77.10;;;19.43;57.79;98047.91;5016940;28;19921;-87
2021/01/10 03:43:34;;;;;;;;;;;19.30;76.90;;;19.44;57.84;98047.66;5018011;28;19924;-90
2021/01/10 03:46:01;;;;;;;;;;;19.30;77.00;;;19.51;58.05;98063.97;5017978;28;19967;-89
2021/01/10 03:48:26;;;;;;;;;;;19.30;76.30;;;19.39;58.15;98044.75;5017981;28;19956;-90
2021/01/10 03:50:52;;;;;;;;;;;19.30;76.10;;;19.49;57.64;98047.81;5017658;28;19972;-92
2021/01/10 03:53:18;;;;;;;;;;;19.30;75.90;;;19.52;57.81;98049.28;5017768;28;19917;-90
2021/01/10 03:55:44;;;;;;;;;;;19.40;76.00;;;19.59;57.73;98051.88;5017740;28;19921;-92
2021/01/10 03:58:10;;;;;;;;;;;19.30;75.70;;;19.34;57.83;98014.59;5017495;28;20341;-91
2021/01/10 04:00:36;;;;;;;;;;;19.40;75.60;;;19.53;57.55;98032.63;5000745;28;19917;-93
2021/01/10 04:03:02;;;;;;;;;;;19.40;75.70;;;19.50;57.65;98040.47;5033920;28;19980;-91
2021/01/10 04:05:27;;;;;;;;;;;19.40;76.00;;;19.48;58.00;98045.34;5001138;28;20330;-91
2021/01/10 04:07:53;;;;;;;;;;;19.40;76.20;;;19.47;57.94;98044.50;5000974;28;20015;-91
2021/01/10 04:10:20;;;;;;;;;;;19.30;76.10;;;19.35;58.03;98034.53;5017552;28;19921;-91
2021/01/10 04:12:45;;;;;;;;;;;19.30;76.30;;;19.43;57.90;98042.44;5017140;28;19964;-89
2021/01/10 04:15:12;;;;;;;;;;;19.30;76.50;;;19.36;58.02;98037.06;5018238;28;20012;-90
2021/01/10 04:17:38;;;;;;;;;;;19.30;76.60;;;19.43;58.21;98053.34;5018202;28;19917;-87
2021/01/10 04:20:04;;;;;;;;;;;19.30;76.90;;;19.50;57.71;98046.75;5033817;28;19917;-88
2021/01/10 04:22:30;;;;;;;;;;;19.30;76.60;;;19.56;58.06;98057.81;5033828;28;20372;-90
2021/01/10 04:24:56;;;;;;;;;;;19.30;76.60;;;19.32;57.80;98013.16;5033476;28;20004;-89
2021/01/10 04:27:22;;;;;;;;;;;19.30;76.60;;;19.51;57.97;98042.13;5033616;28;20023;-86
2021/01/10 04:29:48;;;;;;;;;;;19.30;76.60;;;19.63;57.45;98053.13;5000809;28;19917;-89
2021/01/10 04:32:13;;;;;;;;;;;19.30;76.60;;;19.62;57.64;98067.84;5000597;28;20421;-91
2021/01/10 04:34:40;;;;;;;;;;;19.30;76.60;;;19.64;57.95;98066.53;5000717;28;19984;-90
2021/01/10 04:37:06;;;;;;;;;;;19.30;76.70;;;19.56;57.89;98060.56;5016964;28;19964;-91
2021/01/10 04:39:32;;;;;;;;;;;19.30;76.90;;;19.75;57.79;98081.31;5000572;28;20008;-89
2021/01/10 04:41:58;;;;;;;;;;;19.30;76.90;;;19.73;57.73;98078.81;5033583;28;19957;-91
2021/01/10 04:44:24;;;;;;;;;;;19.30;76.70;;;19.59;57.54;98063.66;5016910;28;20015;-90
2021/01/10 04:46:51;;;;;;;;;;;19.30;77.00;;;19.79;57.50;98079.81;5000619;28;20362;-88
2021/01/10 04:49:19;;;;;;;;;;;19.30;76.90;;;19.56;57.60;98060.56;5016945;28;19917;-88
2021/01/10 04:51:45;;;;;;;;;;;19.30;76.90;;;19.50;57.86;98063.16;5033444;28;19917;-88
2021/01/10 04:54:12;;;;;;;;;;;19.30;76.70;;;19.64;57.91;98096.56;5004799;28;19921;-88
2021/01/10 04:56:41;;;;;;;;;;;19.30;77.30;;;19.63;58.08;98088.63;5037496;28;19916;-86
2021/01/10 04:59:06;;;;;;;;;;;19.30;77.50;;;19.49;58.11;98080.59;5005140;28;19917;-86
2021/01/10 05:01:53;;;;;;;;;;;19.30;77.50;;;19.48;58.47;98089.03;5020570;28;19925;-88
2021/01/10 05:04:19;;;;;;;;;;;19.30;77.40;;;19.55;58.61;98092.50;5023251;28;20007;-88
2021/01/10 05:06:46;;;;;;;;;;;19.30;78.00;;;19.52;58.50;98088.34;5004683;28;20381;-91
2021/01/10 05:09:12;;;;;;;;;;;19.30;77.90;;;19.64;58.59;98106.66;5020884;28;19917;-88
2021/01/10 05:11:38;;;;;;;;;;;19.30;79.10;;;19.66;58.58;98110.00;5004359;28;19917;-86
2021/01/10 05:14:04;;;;;;;;;;;19.30;79.00;;;19.61;58.96;98107.13;5020627;28;19927;-86
2021/01/10 05:16:32;;;;;;;;;;;19.30;79.20;;;19.62;58.74;98092.41;5004201;28;19935;-87
2021/01/10 05:18:59;;;;;;;;;;;19.30;79.20;;;19.55;58.58;98081.56;5049563;28;19925;-81
2021/01/10 05:21:25;;;;;;;;;;;19.40;78.90;;;19.77;57.71;98110.06;4995221;28;19925;-80
2021/01/10 05:23:56;;;;;;;;;;;19.30;77.40;;;19.67;57.84;98100.75;5019394;28;19913;-83
2021/01/10 05:26:25;;;;;;;;;;;19.30;77.40;;;19.68;57.37;98102.44;5019874;28;19924;-82
2021/01/10 05:28:51;;;;;;;;;;;19.30;76.60;;;19.70;57.87;98113.94;5020194;28;19913;-81
2021/01/10 05:31:45;;;;;;;;;;;19.40;76.80;;;19.64;57.66;98110.22;5035892;28;20019;-82
2021/01/10 05:34:16;;;;;;;;;;;19.40;76.30;;;19.52;57.70;98102.00;5037894;28;19936;-83
2021/01/10 05:36:46;;;;;;;;;;;19.40;75.70;;;19.71;57.66;98110.16;5034678;28;20356;-80
2021/01/10 05:39:29;;;;;;;;;;;19.40;75.80;;;19.61;57.66;98109.84;5019443;28;20028;-80
2021/01/10 05:42:04;;;;;;;;;;;19.40;76.20;;;19.55;57.82;98117.06;5035464;28;20387;-80
2021/01/10 05:44:51;;;;;;;;;;;19.30;76.60;;;19.50;57.67;98101.38;5019285;28;20099;-80
2021/01/10 05:47:19;;;;;;;;;;;19.30;75.80;;;19.46;57.32;98083.78;5051765;28;20070;-80
2021/01/10 05:49:53;;;;;;;;;;;19.30;75.40;;;19.62;57.12;98092.41;5035504;28;19954;-80
2021/01/10 05:52:20;;;;;;;;;;;19.30;75.50;;;19.63;56.89;98085.91;5035643;28;19966;-77
2021/01/10 05:54:48;;;;;;;;;;;19.30;74.50;;;19.66;57.40;98082.69;5035297;28;19961;-80
2021/01/10 05:57:16;;;;;;;;;;;19.40;75.00;;;19.72;56.74;98104.47;5035120;28;20323;-79
2021/01/10 05:59:47;;;;;;;;;;;19.40;74.50;;;19.78;55.80;98114.47;5035136;28;19928;-79
2021/01/10 06:02:14;;;;;;;;;;;19.40;72.50;;;19.80;56.05;98114.22;5034588;28;19913;-79
2021/01/10 06:04:40;;;;;;;;;;;19.40;71.00;;;19.73;54.73;98097.09;5034348;28;19918;-81
2021/01/10 06:07:06;;;;;;;;;;;19.30;70.30;;;19.80;54.76;98106.88;5018540;28;19918;-80
2021/01/10 06:09:45;;;;;;;;;;;19.40;70.20;;;19.69;56.01;98079.53;5034405;28;19925;-78
2021/01/10 06:12:25;;;;;;;;;;;19.40;71.90;;;19.75;55.97;98100.41;5034304;28;19917;-79
2021/01/10 06:15:07;;;;;;;;;;;19.40;71.60;;;19.75;54.62;98095.78;5050456;28;19917;-79
2021/01/10 06:17:39;;;;;;;;;;;19.40;69.50;;;19.85;54.42;98098.81;5022358;28;19917;-78
2021/01/10 06:20:17;;;;;;;;;;;19.40;69.60;;;19.85;55.01;98111.63;5035835;28;19979;-80
2021/01/10 06:22:49;;;;;;;;;;;19.40;70.40;;;19.78;56.38;98102.72;5019495;28;19917;-80
2021/01/10 06:25:19;;;;;;;;;;;19.40;72.30;;;19.83;55.88;98102.84;5035150;28;19960;-80
2021/01/10 06:27:46;;;;;;;;;;;19.40;72.20;;;20.03;54.26;98114.34;5018366;28;19967;-81
2021/01/10 06:30:16;;;;;;;;;;;19.40;70.10;;;19.88;55.75;98109.28;5034035;28;19917;-79
2021/01/10 06:32:44;;;;;;;;;;;19.40;73.20;;;19.97;55.42;98118.00;5017357;28;20376;-79
2021/01/10 06:35:10;;;;;;;;;;;19.40;71.80;;;19.95;56.04;98106.44;5034667;28;19948;-81
2021/01/10 06:37:39;;;;;;;;;;;19.40;73.30;;;19.96;55.89;98105.38;5034613;28;19975;-80
2021/01/10 06:40:09;;;;;;;;;;;19.40;74.10;;;19.81;56.85;98102.25;5034651;28;20000;-79
2021/01/10 06:42:40;;;;;;;;;;;19.50;74.40;;;19.82;57.41;98099.28;5034578;28;19923;-80
2021/01/10 06:45:07;;;;;;;;;;;19.50;75.30;;;19.82;56.97;98098.44;5019197;28;19924;-81
2021/01/10 06:47:33;;;;;;;26.80;4.65;;;19.40;75.50;;;20.41;56.07;98097.59;5029289;28;20401;-82
2021/01/10 06:49:59;;;;;;;23.80;5.22;;;19.70;76.70;;;20.09;56.03;98097.00;5021405;28;20033;-83
2021/01/10 06:52:31;;;;;;;19.35;4.28;;;19.90;73.10;;;20.09;55.37;98124.34;4981524;28;20034;-83
2021/01/10 06:54:57;;;;;;;9.75;3.85;;;19.90;70.70;;;19.90;54.92;98090.75;5009720;28;20080;-83
2021/01/10 06:57:31;;;;;;;22.20;4.05;;;19.90;69.60;;;19.82;54.66;98088.34;4997039;28;20094;-83
2021/01/10 07:00:09;;;;;;;10.70;4.30;;;19.80;68.80;;;19.85;54.58;98093.34;4981242;28;20041;-83
2021/01/10 07:03:10;;;;;;;12.82;3.90;;;19.80;68.60;;;20.00;54.40;98109.31;4982123;28;20037;-83
2021/01/10 07:06:11;;;;;;;12.15;3.97;;;19.80;68.20;;;20.01;54.05;98124.66;5013326;28;20038;-83
2021/01/10 07:09:03;;;;;;;11.43;4.65;;;19.80;68.10;;;19.92;57.44;98132.34;5014975;28;20040;-83
2021/01/10 07:11:29;;;;;;;12.35;4.00;;;19.80;74.80;;;20.09;56.29;98134.44;4996738;28;20422;-84
2021/01/10 07:13:57;;;;;;;13.02;4.15;;;19.80;72.80;;;20.02;55.50;98134.53;5014789;28;20030;-84
2021/01/10 07:16:27;;;;;;;16.55;4.15;;;19.80;71.00;;;19.98;54.67;98116.94;5029251;28;20038;-84
2021/01/10 07:19:03;;;;;;;8.20;4.05;;;19.80;69.90;;;19.88;54.67;98114.75;4981323;28;20457;-84
2021/01/10 07:21:38;;;;;;;8.32;3.58;;;19.80;69.70;;;19.89;54.80;98113.69;4981920;28;20072;-84
2021/01/10 07:24:12;;;;;;;14.70;3.60;;;19.80;69.30;;;19.98;54.79;98125.13;4981460;28;20087;-82
2021/01/10 07:26:50;;;;;;;15.63;4.53;;;19.80;69.30;;;19.93;56.11;98122.25;5015140;28;20022;-84
2021/01/10 07:29:41;;;;;;;11.77;3.90;;;19.70;70.90;;;19.86;55.59;98119.59;5013918;28;20038;-83
2021/01/10 07:32:10;;;;;;;8.23;4.00;;;19.70;71.50;;;20.09;55.57;98137.19;4998026;28;20045;-83
2021/01/10 07:34:43;;;;;;;8.35;3.75;;;19.70;71.00;;;19.94;55.21;98113.84;5030291;28;20421;-84
2021/01/10 07:37:23;;;;;;;10.50;3.85;;;19.80;70.50;;;20.03;55.00;98133.47;4998226;28;20034;-84
2021/01/10 07:39:57;;;;;;;11.63;4.10;;;19.70;69.70;;;19.96;54.71;98132.72;4998301;28;20117;-84
2021/01/10 07:42:30;;;;;;;16.02;4.20;;;19.80;69.30;;;19.82;55.05;98115.69;4996565;28;20053;-84
2021/01/10 07:45:17;;;;;;;11.68;4.13;;;19.70;69.00;;;19.94;54.57;98126.66;4997118;28;20393;-84
2021/01/10 07:47:50;;;;;;;9.93;3.97;;;19.80;68.80;;;19.82;54.37;98121.13;4999064;28;20045;-84
2021/01/10 07:50:24;;;;;;;14.07;4.18;;;19.70;68.70;;;19.73;54.44;98108.88;4980725;28;20022;-81
2021/01/10 07:52:56;;;;;;;13.00;4.40;;;19.70;68.50;;;19.94;54.26;98118.47;4996386;28;20088;-84
2021/01/10 07:55:25;;;;;;;15.38;4.18;;;19.70;68.30;;;19.96;54.09;98124.53;4980537;28;20042;-85
2021/01/10 07:58:01;;;;;;;9.30;3.85;;;19.70;68.40;;;19.76;54.44;98115.75;5013335;28;20037;-83
2021/01/10 08:00:53;;;;;;;16.30;4.10;;;19.70;68.30;;;19.97;54.28;98142.59;5004497;28;20125;-82
2021/01/10 08:03:26;;;;;;;23.83;3.90;;;19.70;67.80;;;19.81;54.03;98118.63;4984564;28;20076;-82
2021/01/10 08:06:10;;;;;;;12.45;4.18;;;19.70;67.80;;;19.90;54.04;98133.63;4996200;28;20124;-82
2021/01/10 08:08:46;;;;;;;13.23;3.70;;;19.70;67.70;;;20.00;53.85;98135.84;5012853;28;20029;-84
2021/01/10 08:11:30;;;;;;;20.38;4.15;;;19.70;67.60;;;19.90;54.07;98120.81;5029916;28;20037;-83
2021/01/10 08:13:57;;;;;;;18.05;4.53;;;19.70;67.60;;;19.81;54.36;98129.56;5005151;28;20026;-82
2021/01/10 08:16:31;;;;;;;17.48;4.10;;;19.80;67.60;;;19.95;54.19;98145.53;5003866;28;20037;-82
2021/01/10 08:19:06;;;;;;;15.13;4.90;;;19.70;67.60;;;19.94;53.93;98137.59;4976511;28;20099;-84
2021/01/10 08:21:32;;;;;;;14.00;4.38;;;19.70;67.40;;;19.74;54.11;98128.84;4981993;28;20030;-84
2021/01/10 08:23:59;;;;;;;23.90;4.78;;;19.70;67.50;;;19.87;54.01;98147.75;5000098;28;20029;-81
2021/01/10 08:26:25;;;;;;;11.95;3.92;;;19.70;67.40;;;19.74;54.50;98131.56;4953027;28;20050;-83
2021/01/10 08:28:57;;;;;;;23.33;4.45;;;19.70;67.80;;;19.80;54.02;98145.13;4984699;28;20120;-82
2021/01/10 08:31:26;;;;;;;26.75;4.85;;;19.70;67.60;;;19.89;53.98;98143.75;4999491;28;20049;-84
2021/01/10 08:34:09;;;;;;;21.48;5.28;;;19.70;67.60;;;19.82;54.48;98153.94;4999559;28;20083;-85
2021/01/10 08:36:37;;;;;;;28.83;5.03;;;19.70;68.10;;;19.76;54.13;98146.66;5010145;28;20079;-82
2021/01/10 08:39:09;;;;;;;33.20;4.63;;;19.70;67.50;;;19.86;53.73;98159.75;4990840;28;20079;-81
2021/01/10 08:41:45;;;;;;;25.45;5.45;;;19.70;67.50;;;19.87;54.02;98156.81;4988886;28;20494;-84
2021/01/10 08:44:19;;;;;;;22.50;6.13;;;19.70;67.50;;;19.99;53.15;98181.47;4992036;28;20132;-81
2021/01/10 08:46:51;;;;;;;24.90;4.97;;;19.70;66.50;;;19.90;53.05;98183.66;4991478;28;20708;-86
2021/01/10 08:49:22;;;;;;;29.08;5.25;;;19.70;66.10;;;19.77;53.48;98167.44;4998911;28;20115;-79
2021/01/10 08:51:49;;;;;;;29.73;5.82;;;19.70;66.10;;;19.76;53.44;98178.59;4994780;28;20033;-84
2021/01/10 08:54:18;;;;;;;15.90;5.00;;;19.70;66.30;;;19.81;53.20;98185.03;4996299;28;20129;-83
2021/01/10 08:56:53;;;;;;;16.73;5.43;;;19.60;66.10;;;19.76;53.48;98187.63;5011281;28;20407;-78
2021/01/10 08:59:19;;;;;;;21.55;5.30;;;19.60;66.10;;;19.75;53.72;98190.56;5015125;28;20106;-79
2021/01/10 09:01:50;;;;;;;15.43;4.95;;;19.60;66.70;;;19.75;53.47;98198.78;5014419;28;20025;-88
2021/01/10 09:04:17;;;;;;;21.50;5.80;;;19.50;65.60;;;19.61;52.92;98186.34;4998626;28;20076;-80
2021/01/10 09:07:10;;;;;;;16.42;5.57;;;19.60;65.50;;;19.83;52.49;98223.06;5014720;28;20037;-81
2021/01/10 09:09:59;;;;;;;18.67;5.65;;;19.60;64.40;;;19.72;52.32;98227.41;5032018;28;20037;-81
2021/01/10 09:12:46;;;;;;;16.38;6.35;;;19.60;64.00;;;19.68;52.03;98217.16;4999376;28;20063;-81
2021/01/10 09:15:34;;;;;;;18.98;6.03;;;19.50;63.60;;;19.73;51.61;98237.25;5016577;28;20476;-81
2021/01/10 09:18:19;;;;;;;20.10;6.38;;;19.50;62.80;;;19.60;51.13;98220.16;5015306;28;20132;-81
2021/01/10 09:21:01;;;;;;;15.77;5.82;;;19.50;62.50;;;19.63;50.78;98225.19;5015133;28;20029;-81
2021/01/10 09:23:28;;;;;;;17.05;6.40;;;19.50;62.00;;;19.75;50.66;98218.72;4998784;28;20396;-81
2021/01/10 09:25:55;;;;;;;17.85;6.00;;;19.50;61.60;;;19.61;50.84;98210.91;5030984;28;20092;-81
2021/01/10 09:28:22;;;;;;;11.50;5.78;;;19.50;61.80;;;19.63;50.74;98209.66;5031055;28;20112;-81
2021/01/10 09:30:55;;;;;;;15.52;6.35;;;19.50;61.60;;;19.54;50.72;98200.06;4997976;28;20046;-81
2021/01/10 09:33:32;;;;;;;19.63;6.25;;;19.50;61.40;;;19.55;50.90;98201.72;4998666;28;20061;-81
2021/01/10 09:36:01;;;;;;;13.70;6.30;;;19.50;61.40;;;19.69;50.77;98225.09;4998582;28;20026;-81
2021/01/10 09:38:32;;;;;;;12.55;6.35;;;19.40;61.50;;;19.60;50.61;98212.81;4999192;28;20037;-81
2021/01/10 09:41:08;;;;;;;11.90;5.90;;;19.50;61.10;;;19.65;50.38;98203.94;5001874;28;20032;-81
2021/01/10 09:43:48;;;;;;;11.82;6.30;;;19.50;61.20;;;19.73;50.66;98220.03;5002060;28;20041;-82
2021/01/10 09:46:39;;;;;;;12.07;5.97;;;19.50;61.00;;;19.61;50.58;98211.75;5018328;28;20104;-81
2021/01/10 09:49:22;;;;;;;14.27;5.60;;;19.50;61.00;;;19.53;50.73;98204.69;5017717;28;20084;-81
2021/01/10 09:51:47;;;;;;;13.27;6.28;;;19.50;61.00;;;19.63;50.89;98214.25;5004979;28;20037;-81
2021/01/10 09:54:26;;;;;;;13.13;5.72;;;19.50;61.00;;;19.55;50.57;98196.28;5050862;28;20433;-81
2021/01/10 09:57:17;;;;;;;10.10;5.90;;;19.50;60.90;;;19.46;50.79;98181.25;5002184;28;20030;-81
2021/01/10 10:00:04;;;;;;;11.52;6.22;;;19.50;60.90;;;19.51;50.85;98182.25;5004449;28;20061;-82
2021/01/10 10:02:37;;;;;;;10.95;5.65;;;19.50;60.80;;;19.55;50.69;98184.50;5017782;28;20380;-81
2021/01/10 10:05:28;;;;;;;9.80;5.80;;;19.50;60.90;;;19.64;50.82;98200.38;5034399;28;20029;-81
2021/01/10 10:08:02;;;;;;;9.60;5.97;;;19.50;61.10;;;19.58;50.48;98186.81;5034218;28;20115;-82
2021/01/10 10:10:31;;;;;;;9.80;6.25;;;19.40;60.80;;;19.52;50.62;98178.47;5001392;28;20036;-81
2021/01/10 10:13:01;;;;;;;13.05;6.03;;;19.50;60.70;;;19.58;50.61;98179.44;5017724;28;20040;-81
2021/01/10 10:15:56;;;;;;;10.52;5.47;;;19.40;60.80;;;19.55;50.64;98163.50;5018079;28;20037;-84
2021/01/10 10:18:28;;;;;;;12.60;5.90;;;19.50;60.90;;;19.56;50.48;98175.25;5004147;28;20472;-84
2021/01/10 10:20:55;;;;;;;10.23;6.03;;;19.50;61.00;;;19.55;50.59;98165.38;4993823;28;20034;-81
2021/01/10 10:23:21;;;;;;;11.75;6.63;;;19.40;60.70;;;19.58;50.36;98159.50;4968860;28;20308;-80
2021/01/10 10:25:50;;;;;;;13.70;6.63;;;19.40;60.60;;;19.63;50.60;98167.84;4983665;28;20022;-80
2021/01/10 10:28:18;;;;;;;9.38;6.35;;;19.40;60.30;;;19.48;50.12;98130.78;4997050;28;20038;-80
2021/01/10 10:30:46;;;;;;;13.02;5.78;;;19.40;60.30;;;19.47;50.03;98126.41;5005253;28;20057;-80
2021/01/10 10:33:13;;;;;;;19.30;5.97;;;19.40;60.40;;;19.55;50.04;98135.34;5029512;28;20030;-79
2021/01/10 10:35:39;;;;;;;11.13;6.15;;;19.40;60.60;;;19.56;50.65;98120.63;5013200;28;20072;-80
2021/01/10 10:38:06;;;;;;;11.70;5.95;;;19.40;60.70;;;19.53;50.14;98119.22;5015418;28;20389;-80
2021/01/10 10:40:33;;;;;;;12.55;6.60;;;19.40;60.80;;;19.47;50.39;98103.75;5016419;28;20461;-80
2021/01/10 10:42:59;;;;;;;13.48;5.90;;;19.40;60.70;;;19.50;50.58;98111.47;5016356;28;20084;-80
2021/01/10 10:45:26;;;;;;;8.95;5.75;;;19.40;60.80;;;19.59;50.57;98126.47;5016728;28;20033;-80
2021/01/10 10:47:52;;;;;;;17.90;6.53;;;19.40;61.00;;;19.51;50.64;98102.22;5032975;28;20033;-81
2021/01/10 10:50:18;;;;;;;23.80;6.57;;;19.40;61.10;;;19.64;50.60;98123.88;5016643;28;20032;-80
2021/01/10 10:52:45;;;;;;;13.20;6.38;;;19.40;61.10;;;19.43;51.21;98088.84;4999858;28;20443;-80
2021/01/10 10:55:12;;;;;;;16.00;6.38;;;19.40;61.20;;;19.65;50.72;98119.25;5016435;28;20464;-81
2021/01/10 10:57:43;;;;;;;12.07;6.13;;;19.40;61.90;;;19.64;50.76;98118.41;5016275;28;20095;-81
2021/01/10 11:00:11;;;;;;;8.98;5.82;;;19.40;61.40;;;19.66;50.79;98110.84;5016703;28;20025;-81
2021/01/10 11:02:37;;;;;;;11.30;5.60;;;19.40;61.60;;;19.59;50.85;98110.09;5017411;28;20036;-83
2021/01/10 11:05:05;;;;;;;12.68;5.82;;;19.40;61.60;;;19.63;50.86;98105.84;5001388;28;20030;-83
2021/01/10 11:07:33;;;;;;;14.43;6.20;;;19.40;61.90;;;19.66;51.04;98116.31;5000888;28;20431;-82
2021/01/10 11:09:59;;;;;;;15.20;6.57;;;19.40;62.10;;;19.53;51.25;98120.03;5018104;28;20025;-83